• Join FlightAware (Why Join?)
  • Login
  • US Flag 
04:49PM EST


 

Airport Tracker/Info


-or-


 

Live Flight TrackerFlight Track Log ✈ AIP5006 ✈ 26-Oct-2013 ✈ KBIL - KBTM

Flight Track Log - Related Links

Times and Time Zones

All times are in EDT time to prevent confusion due to time zone crossing. See the AIP5006 flight status page for this flight to view local times or setup timezone preferences in your user account.

Time Position Orientation Groundspeed Altitude Reporting Facility
EDT Latitude Longitude Course Direction KTS MPH feet Rate Location/Type
05:36AM 45.8131 -108.6964 274° West 140 161 6,800  Level Salt Lake Center
05:37AM 45.8158 -108.7497 274° West 138 159 7,800 960 Climbing Salt Lake Center
05:38AM 45.8142 -108.8050 268° West 141 162 8,800 1,020 Climbing Salt Lake Center
05:39AM 45.8139 -108.8583 270° West 136 157 9,900 960 Climbing Salt Lake Center
05:40AM 45.8136 -108.9117 270° West 136 157 10,800 900 Climbing Salt Lake Center
05:41AM 45.8103 -108.9683 265° West 143 165 11,700 900 Climbing Salt Lake Center
05:42AM 45.8108 -109.0267 271° West 147 169 12,600 840 Climbing Salt Lake Center
05:43AM 45.8111 -109.0917 270° West 151 174 13,400 660 Climbing Salt Lake Center
05:44AM 45.8183 -109.1550 279° West 161 185 14,000 300 Climbing Salt Lake Center
05:45AM 45.8233 -109.2300 275° West 187 215 14,000  Level Salt Lake Center
05:46AM 45.8264 -109.3131 273° West 207 238 14,000  Level Salt Lake Center
05:47AM 45.8297 -109.3981 273° West 215 247 14,100  Climbing Salt Lake Center
05:48AM 45.8347 -109.4811 275° West 213 245 14,000 -60 Descending Salt Lake Center
05:49AM 45.8397 -109.5644 275° West 212 244 14,000 -60 Level Salt Lake Center
05:50AM 45.8369 -109.6481 267° West 212 244 13,900  Descending Salt Lake Center
05:51AM 45.8306 -109.7342 264° West 205 236 14,000  Climbing Salt Lake Center
05:53AM 45.8323 -109.8951 271° West  Level FlightAware Approximate
05:54AM 45.8414 -109.9853 271° West 210 242 14,000  Level Salt Lake Center
05:55AM 45.8442 -110.0686 273° West 210 242 14,000  Level Salt Lake Center
05:56AM 45.8447 -110.1517 271° West 209 241 14,000  Level Salt Lake Center
05:57AM 45.8475 -110.2361 273° West 211 243 14,100  Climbing Salt Lake Center
05:58AM 45.8481 -110.3189 271° West 210 242 14,100  Level Salt Lake Center
05:59AM 45.8508 -110.4028 273° West 211 243 14,100  Level Salt Lake Center
06:00AM 45.8489 -110.4869 268° West 212 244 14,100  Level Salt Lake Center
06:01AM 45.8500 -110.5697 271° West 209 241 14,100  Level Salt Lake Center
06:02AM 45.8522 -110.6611 272° West 205 236 14,100  Level Salt Lake Center
06:03AM 45.8539 -110.7464 272° West 208 239 14,100  Level Salt Lake Center
06:04AM 45.8547 -110.8317 271° West 212 244 14,100 -60 Level Salt Lake Center
06:05AM 45.8558 -110.9175 271° West 213 245 14,000  Descending Salt Lake Center
06:06AM 45.8567 -110.9958 271° West 212 244 14,100  Climbing Salt Lake Center
06:07AM 45.8575 -111.0817 271° West 213 245 14,100  Level Salt Lake Center
06:08AM 45.8597 -111.1672 272° West 213 245 14,100  Level Salt Lake Center
06:09AM 45.8583 -111.2522 269° West 211 243 14,100  Level Salt Lake Center
06:10AM 45.8581 -111.3367 270° West 209 241 14,100  Level Salt Lake Center
06:11AM 45.8581 -111.4203 270° West 207 238 14,100  Level Salt Lake Center
06:12AM 45.8603 -111.4983 272° West 210 242 14,200  Climbing Salt Lake Center
06:13AM 45.8597 -111.5817 269° West 207 238 14,100 -240 Descending Salt Lake Center
06:14AM 45.8600 -111.6658 270° West 208 239 13,800 -600 Descending Salt Lake Center
06:15AM 45.8594 -111.7594 270° West 228 262 12,900 -900 Descending Salt Lake Center
06:16AM 45.8614 -111.8469 272° West 233 268 12,100 -420 Descending Salt Lake Center
06:17AM 45.8633 -111.9347 272° West 219 252 12,100  Level Salt Lake Center
06:18AM 45.8614 -112.0183 268° West 207 238 12,100  Level Salt Lake Center
06:19AM 45.8603 -112.1000 269° West 203 234 12,100 -120 Level Salt Lake Center
06:20AM 45.8675 -112.1819 277° West 204 235 11,900 -540 Descending Salt Lake Center
06:21AM 45.8822 -112.2639 284° West 222 255 11,100 -840 Descending Salt Lake Center
06:22AM 45.8986 -112.3514 285° West 224 258 10,300 -900 Descending Salt Lake Center
06:23AM 45.9197 -112.4358 290° West 222 255 9,300 -1,080 Descending Salt Lake Center
06:24AM 45.9450 -112.5083 297° West 213 245 8,200 -1,140 Descending Salt Lake Center
06:26AM 45.9548 -112.4975 38° Northeast  Level Estimated